sensor_id;sensor_type;location;lat;lon;timestamp;P1;durP1;ratioP1;P2;durP2;ratioP2
64595;SDS011;51003;51.628;6.670;2023-03-14T13:14:48;6.00;;;2.47;;
64595;SDS011;51003;51.628;6.670;2023-03-14T13:17:15;8.67;;;2.20;;
64595;SDS011;51003;51.628;6.670;2023-03-14T13:19:52;8.17;;;2.33;;
64595;SDS011;51003;51.628;6.670;2023-03-14T13:22:21;16.30;;;2.80;;
64595;SDS011;51003;51.628;6.670;2023-03-14T13:25:10;8.83;;;2.30;;
64595;SDS011;51003;51.628;6.670;2023-03-14T13:27:36;11.07;;;2.17;;
64595;SDS011;51003;51.628;6.670;2023-03-14T13:32:48;7.23;;;1.83;;
64595;SDS011;51003;51.628;6.670;2023-03-14T13:48:21;4.30;;;1.50;;
64595;SDS011;51003;51.628;6.670;2023-03-14T13:50:55;8.73;;;1.80;;
64595;SDS011;51003;51.628;6.670;2023-03-14T13:53:24;9.70;;;2.07;;
64595;SDS011;51003;51.628;6.670;2023-03-14T13:55:50;5.93;;;1.90;;
64595;SDS011;51003;51.628;6.670;2023-03-14T13:58:20;6.83;;;1.57;;
64595;SDS011;51003;51.628;6.670;2023-03-14T14:01:33;7.33;;;1.83;;
64595;SDS011;51003;51.628;6.670;2023-03-14T14:03:43;7.30;;;1.70;;
64595;SDS011;51003;51.628;6.670;2023-03-14T14:06:16;6.70;;;1.63;;
64595;SDS011;51003;51.628;6.670;2023-03-14T14:08:47;9.43;;;1.73;;
64595;SDS011;51003;51.628;6.670;2023-03-14T14:11:33;5.47;;;1.83;;
64595;SDS011;51003;51.628;6.670;2023-03-14T14:14:04;3.93;;;1.97;;
64595;SDS011;51003;51.628;6.670;2023-03-14T14:16:31;3.60;;;1.90;;
64595;SDS011;51003;51.628;6.670;2023-03-14T14:18:57;5.17;;;1.80;;
64595;SDS011;51003;51.628;6.670;2023-03-14T14:21:23;7.40;;;2.03;;
64595;SDS011;51003;51.628;6.670;2023-03-14T14:23:49;5.80;;;2.13;;
64595;SDS011;51003;51.628;6.670;2023-03-14T14:26:18;5.93;;;2.10;;
64595;SDS011;51003;51.628;6.670;2023-03-14T14:28:45;4.40;;;1.83;;
64595;SDS011;51003;51.628;6.670;2023-03-14T14:33:52;5.83;;;1.90;;
64595;SDS011;51003;51.628;6.670;2023-03-14T14:36:36;5.47;;;2.03;;
64595;SDS011;51003;51.628;6.670;2023-03-14T14:39:17;6.20;;;1.70;;
64595;SDS011;51003;51.628;6.670;2023-03-14T14:41:44;5.67;;;1.57;;
64595;SDS011;51003;51.628;6.670;2023-03-14T14:44:13;5.23;;;1.70;;
64595;SDS011;51003;51.628;6.670;2023-03-14T14:46:39;7.63;;;1.50;;
64595;SDS011;51003;51.628;6.670;2023-03-14T14:49:06;5.63;;;1.70;;
64595;SDS011;51003;51.628;6.670;2023-03-14T14:51:38;2.97;;;1.40;;
64595;SDS011;51003;51.628;6.670;2023-03-14T14:54:16;3.73;;;1.50;;
64595;SDS011;51003;51.628;6.670;2023-03-14T14:56:48;4.00;;;1.67;;
64595;SDS011;51003;51.628;6.670;2023-03-14T14:59:25;5.90;;;1.77;;
64595;SDS011;51003;51.628;6.670;2023-03-14T15:01:59;5.10;;;1.60;;
64595;SDS011;51003;51.628;6.670;2023-03-14T15:04:27;4.43;;;1.50;;
64595;SDS011;51003;51.628;6.670;2023-03-14T15:06:55;8.37;;;1.70;;
64595;SDS011;51003;51.628;6.670;2023-03-14T15:09:21;4.13;;;1.67;;
64595;SDS011;51003;51.628;6.670;2023-03-14T15:11:47;4.67;;;1.33;;
64595;SDS011;51003;51.628;6.670;2023-03-14T15:14:13;4.47;;;1.57;;
64595;SDS011;51003;51.628;6.670;2023-03-14T15:16:38;2.57;;;1.50;;
64595;SDS011;51003;51.628;6.670;2023-03-14T15:19:12;2.97;;;1.30;;
64595;SDS011;51003;51.628;6.670;2023-03-14T15:21:52;4.70;;;1.30;;
64595;SDS011;51003;51.628;6.670;2023-03-14T15:24:21;4.40;;;1.57;;
64595;SDS011;51003;51.628;6.670;2023-03-14T15:26:47;4.30;;;1.30;;
64595;SDS011;51003;51.628;6.670;2023-03-14T15:29:12;6.70;;;1.53;;
64595;SDS011;51003;51.628;6.670;2023-03-14T15:31:38;4.17;;;1.67;;
64595;SDS011;51003;51.628;6.670;2023-03-14T15:34:04;5.90;;;1.10;;
64595;SDS011;51003;51.628;6.670;2023-03-14T15:36:31;5.63;;;1.63;;
64595;SDS011;51003;51.628;6.670;2023-03-14T15:38:57;4.53;;;1.23;;
64595;SDS011;51003;51.628;6.670;2023-03-14T15:41:26;2.30;;;1.00;;
64595;SDS011;51003;51.628;6.670;2023-03-14T15:43:53;3.10;;;1.40;;
64595;SDS011;51003;51.628;6.670;2023-03-14T15:46:19;6.27;;;1.60;;
64595;SDS011;51003;51.628;6.670;2023-03-14T15:48:46;4.90;;;1.03;;
64595;SDS011;51003;51.628;6.670;2023-03-14T15:51:13;5.23;;;1.50;;
64595;SDS011;51003;51.628;6.670;2023-03-14T15:53:38;5.03;;;1.37;;
64595;SDS011;51003;51.628;6.670;2023-03-14T15:56:04;4.17;;;1.27;;
64595;SDS011;51003;51.628;6.670;2023-03-14T15:58:31;3.10;;;1.33;;
64595;SDS011;51003;51.628;6.670;2023-03-14T16:00:59;2.80;;;1.10;;
64595;SDS011;51003;51.628;6.670;2023-03-14T16:03:25;2.10;;;1.20;;
64595;SDS011;51003;51.628;6.670;2023-03-14T16:05:51;4.30;;;1.53;;
64595;SDS011;51003;51.628;6.670;2023-03-14T16:08:16;5.40;;;1.40;;
64595;SDS011;51003;51.628;6.670;2023-03-14T16:10:42;3.17;;;1.60;;
64595;SDS011;51003;51.628;6.670;2023-03-14T16:13:08;4.17;;;1.30;;
64595;SDS011;51003;51.628;6.670;2023-03-14T16:15:33;5.43;;;1.67;;
64595;SDS011;51003;51.628;6.670;2023-03-14T16:17:59;6.13;;;1.40;;
64595;SDS011;51003;51.628;6.670;2023-03-14T16:20:25;5.90;;;1.93;;
64595;SDS011;51003;51.628;6.670;2023-03-14T16:22:50;4.27;;;1.63;;
64595;SDS011;51003;51.628;6.670;2023-03-14T16:25:16;4.30;;;1.50;;
64595;SDS011;51003;51.628;6.670;2023-03-14T16:27:42;3.47;;;1.00;;
64595;SDS011;51003;51.628;6.670;2023-03-14T16:30:08;4.60;;;1.60;;
64595;SDS011;51003;51.628;6.670;2023-03-14T16:32:37;3.87;;;1.67;;
64595;SDS011;51003;51.628;6.670;2023-03-14T16:35:03;3.77;;;1.50;;
64595;SDS011;51003;51.628;6.670;2023-03-14T16:37:28;5.20;;;1.20;;
64595;SDS011;51003;51.628;6.670;2023-03-14T16:39:53;4.03;;;1.70;;
64595;SDS011;51003;51.628;6.670;2023-03-14T16:42:19;4.00;;;1.93;;
64595;SDS011;51003;51.628;6.670;2023-03-14T16:44:45;4.70;;;1.57;;
64595;SDS011;51003;51.628;6.670;2023-03-14T16:47:10;2.50;;;1.60;;
64595;SDS011;51003;51.628;6.670;2023-03-14T16:49:36;3.10;;;1.70;;
64595;SDS011;51003;51.628;6.670;2023-03-14T16:52:02;4.93;;;1.27;;
64595;SDS011;51003;51.628;6.670;2023-03-14T16:54:27;4.50;;;1.50;;
64595;SDS011;51003;51.628;6.670;2023-03-14T16:57:00;1.30;;;1.00;;
64595;SDS011;51003;51.628;6.670;2023-03-14T16:59:30;6.20;;;1.80;;
64595;SDS011;51003;51.628;6.670;2023-03-14T17:01:56;8.13;;;1.60;;
64595;SDS011;51003;51.628;6.670;2023-03-14T17:04:22;2.70;;;1.50;;
64595;SDS011;51003;51.628;6.670;2023-03-14T17:06:47;6.37;;;1.97;;
64595;SDS011;51003;51.628;6.670;2023-03-14T17:09:13;1.40;;;1.13;;
64595;SDS011;51003;51.628;6.670;2023-03-14T17:11:38;4.77;;;1.63;;
64595;SDS011;51003;51.628;6.670;2023-03-14T17:14:04;5.50;;;1.70;;
64595;SDS011;51003;51.628;6.670;2023-03-14T17:16:29;4.50;;;1.47;;
64595;SDS011;51003;51.628;6.670;2023-03-14T17:18:55;3.20;;;1.20;;
64595;SDS011;51003;51.628;6.670;2023-03-14T17:21:21;4.37;;;1.60;;
64595;SDS011;51003;51.628;6.670;2023-03-14T17:23:46;7.07;;;1.40;;
64595;SDS011;51003;51.628;6.670;2023-03-14T17:26:12;2.30;;;1.43;;
64595;SDS011;51003;51.628;6.670;2023-03-14T17:28:38;3.40;;;1.80;;
64595;SDS011;51003;51.628;6.670;2023-03-14T17:31:16;4.30;;;1.80;;
64595;SDS011;51003;51.628;6.670;2023-03-14T17:33:43;4.43;;;1.40;;
64595;SDS011;51003;51.628;6.670;2023-03-14T17:36:09;11.40;;;1.50;;
64595;SDS011;51003;51.628;6.670;2023-03-14T17:38:37;2.90;;;1.40;;
64595;SDS011;51003;51.628;6.670;2023-03-14T17:41:05;2.10;;;1.40;;
64595;SDS011;51003;51.628;6.670;2023-03-14T17:43:32;3.97;;;1.63;;
64595;SDS011;51003;51.628;6.670;2023-03-14T17:45:58;7.60;;;1.70;;
64595;SDS011;51003;51.628;6.670;2023-03-14T17:48:25;4.77;;;1.70;;
64595;SDS011;51003;51.628;6.670;2023-03-14T17:50:51;9.93;;;1.60;;
64595;SDS011;51003;51.628;6.670;2023-03-14T17:53:16;4.50;;;1.60;;
64595;SDS011;51003;51.628;6.670;2023-03-14T17:55:42;4.57;;;1.33;;
64595;SDS011;51003;51.628;6.670;2023-03-14T17:58:07;8.43;;;2.00;;
64595;SDS011;51003;51.628;6.670;2023-03-14T18:00:33;4.40;;;2.00;;
64595;SDS011;51003;51.628;6.670;2023-03-14T18:02:58;9.03;;;1.73;;
64595;SDS011;51003;51.628;6.670;2023-03-14T18:05:38;13.63;;;2.33;;
64595;SDS011;51003;51.628;6.670;2023-03-14T18:08:24;10.00;;;2.30;;
64595;SDS011;51003;51.628;6.670;2023-03-14T18:10:59;5.93;;;1.80;;
64595;SDS011;51003;51.628;6.670;2023-03-14T18:16:50;7.00;;;2.17;;
64595;SDS011;51003;51.628;6.670;2023-03-14T18:19:17;5.70;;;1.70;;
64595;SDS011;51003;51.628;6.670;2023-03-14T18:21:43;4.20;;;2.30;;
64595;SDS011;51003;51.628;6.670;2023-03-14T18:24:11;7.47;;;2.43;;
64595;SDS011;51003;51.628;6.670;2023-03-14T18:26:37;7.30;;;1.60;;
64595;SDS011;51003;51.628;6.670;2023-03-14T18:29:02;4.60;;;1.57;;
64595;SDS011;51003;51.628;6.670;2023-03-14T18:31:28;6.10;;;1.83;;
64595;SDS011;51003;51.628;6.670;2023-03-14T18:33:55;2.90;;;1.50;;
64595;SDS011;51003;51.628;6.670;2023-03-14T18:42:09;4.77;;;1.50;;
64595;SDS011;51003;51.628;6.670;2023-03-14T18:44:48;5.67;;;1.47;;
64595;SDS011;51003;51.628;6.670;2023-03-14T18:50:28;10.03;;;1.77;;
64595;SDS011;51003;51.628;6.670;2023-03-14T18:52:55;5.77;;;1.30;;
64595;SDS011;51003;51.628;6.670;2023-03-14T18:55:21;6.47;;;1.70;;
64595;SDS011;51003;51.628;6.670;2023-03-14T18:57:47;2.50;;;1.40;;
64595;SDS011;51003;51.628;6.670;2023-03-14T19:00:13;5.20;;;1.70;;
64595;SDS011;51003;51.628;6.670;2023-03-14T19:02:40;6.73;;;2.00;;
64595;SDS011;51003;51.628;6.670;2023-03-14T19:05:13;3.60;;;2.07;;
64595;SDS011;51003;51.628;6.670;2023-03-14T19:07:39;6.17;;;2.37;;
64595;SDS011;51003;51.628;6.670;2023-03-14T19:10:05;5.23;;;2.40;;
64595;SDS011;51003;51.628;6.670;2023-03-14T19:12:30;9.03;;;2.40;;
64595;SDS011;51003;51.628;6.670;2023-03-14T19:14:56;5.10;;;2.30;;
64595;SDS011;51003;51.628;6.670;2023-03-14T19:17:22;8.03;;;2.20;;
64595;SDS011;51003;51.628;6.670;2023-03-14T19:19:47;4.63;;;1.90;;
64595;SDS011;51003;51.628;6.670;2023-03-14T19:22:12;3.13;;;1.97;;
64595;SDS011;51003;51.628;6.670;2023-03-14T19:24:39;8.33;;;2.43;;
64595;SDS011;51003;51.628;6.670;2023-03-14T19:27:05;9.23;;;2.27;;
64595;SDS011;51003;51.628;6.670;2023-03-14T19:29:31;5.03;;;2.00;;
64595;SDS011;51003;51.628;6.670;2023-03-14T19:32:03;11.07;;;2.63;;
64595;SDS011;51003;51.628;6.670;2023-03-14T19:34:29;5.77;;;2.30;;
64595;SDS011;51003;51.628;6.670;2023-03-14T19:36:55;6.00;;;2.00;;
64595;SDS011;51003;51.628;6.670;2023-03-14T19:39:21;6.63;;;2.20;;
64595;SDS011;51003;51.628;6.670;2023-03-14T19:41:47;5.17;;;2.57;;
64595;SDS011;51003;51.628;6.670;2023-03-14T19:44:13;12.23;;;1.70;;
64595;SDS011;51003;51.628;6.670;2023-03-14T19:50:22;1.93;;;1.70;;
64595;SDS011;51003;51.628;6.670;2023-03-14T19:52:57;8.53;;;2.53;;
64595;SDS011;51003;51.628;6.670;2023-03-14T19:55:23;4.60;;;1.93;;
64595;SDS011;51003;51.628;6.670;2023-03-14T19:58:02;7.13;;;2.03;;
64595;SDS011;51003;51.628;6.670;2023-03-14T20:00:28;6.40;;;1.90;;
64595;SDS011;51003;51.628;6.670;2023-03-14T20:02:54;5.97;;;1.60;;
64595;SDS011;51003;51.628;6.670;2023-03-14T20:05:21;6.50;;;2.43;;
64595;SDS011;51003;51.628;6.670;2023-03-14T20:08:02;10.23;;;2.20;;
64595;SDS011;51003;51.628;6.670;2023-03-14T20:10:29;4.67;;;2.17;;
64595;SDS011;51003;51.628;6.670;2023-03-14T20:12:54;11.30;;;2.07;;
64595;SDS011;51003;51.628;6.670;2023-03-14T20:15:23;6.60;;;1.80;;
64595;SDS011;51003;51.628;6.670;2023-03-14T20:18:00;7.53;;;1.90;;
64595;SDS011;51003;51.628;6.670;2023-03-14T20:20:27;4.10;;;1.63;;
64595;SDS011;51003;51.628;6.670;2023-03-14T20:22:53;7.40;;;1.70;;
64595;SDS011;51003;51.628;6.670;2023-03-14T20:25:19;4.57;;;1.60;;
64595;SDS011;51003;51.628;6.670;2023-03-14T20:27:46;5.33;;;1.50;;
64595;SDS011;51003;51.628;6.670;2023-03-14T20:30:13;4.07;;;1.70;;
64595;SDS011;51003;51.628;6.670;2023-03-14T20:32:42;7.27;;;1.50;;
64595;SDS011;51003;51.628;6.670;2023-03-14T20:35:08;2.33;;;1.47;;
64595;SDS011;51003;51.628;6.670;2023-03-14T20:37:35;3.13;;;1.73;;
64595;SDS011;51003;51.628;6.670;2023-03-14T20:40:04;6.50;;;1.87;;
64595;SDS011;51003;51.628;6.670;2023-03-14T20:42:32;10.40;;;2.17;;
64595;SDS011;51003;51.628;6.670;2023-03-14T20:44:58;8.03;;;2.27;;
64595;SDS011;51003;51.628;6.670;2023-03-14T20:47:24;7.47;;;2.37;;
64595;SDS011;51003;51.628;6.670;2023-03-14T20:49:50;4.30;;;1.83;;
64595;SDS011;51003;51.628;6.670;2023-03-14T20:52:17;6.40;;;2.30;;
64595;SDS011;51003;51.628;6.670;2023-03-14T20:54:42;9.47;;;2.53;;
64595;SDS011;51003;51.628;6.670;2023-03-14T20:57:08;8.40;;;2.23;;
64595;SDS011;51003;51.628;6.670;2023-03-14T20:59:34;7.97;;;2.80;;
64595;SDS011;51003;51.628;6.670;2023-03-14T21:02:00;8.20;;;2.57;;
64595;SDS011;51003;51.628;6.670;2023-03-14T21:04:35;3.50;;;2.20;;
64595;SDS011;51003;51.628;6.670;2023-03-14T21:10:18;4.40;;;1.80;;
64595;SDS011;51003;51.628;6.670;2023-03-14T21:12:45;8.37;;;2.20;;
64595;SDS011;51003;51.628;6.670;2023-03-14T21:18:57;6.77;;;1.90;;
64595;SDS011;51003;51.628;6.670;2023-03-14T21:21:31;4.60;;;2.07;;
64595;SDS011;51003;51.628;6.670;2023-03-14T21:23:56;5.90;;;1.83;;
64595;SDS011;51003;51.628;6.670;2023-03-14T21:43:01;7.73;;;1.80;;
64595;SDS011;51003;51.628;6.670;2023-03-14T21:45:40;4.83;;;2.23;;
64595;SDS011;51003;51.628;6.670;2023-03-14T21:48:06;7.13;;;1.90;;
64595;SDS011;51003;51.628;6.670;2023-03-14T21:50:32;7.43;;;2.30;;
64595;SDS011;51003;51.628;6.670;2023-03-14T21:52:58;9.00;;;2.20;;
64595;SDS011;51003;51.628;6.670;2023-03-14T21:55:24;6.83;;;2.43;;
64595;SDS011;51003;51.628;6.670;2023-03-14T21:57:51;5.37;;;2.17;;
64595;SDS011;51003;51.628;6.670;2023-03-14T22:00:18;8.70;;;2.00;;
64595;SDS011;51003;51.628;6.670;2023-03-14T22:02:45;4.93;;;2.13;;
64595;SDS011;51003;51.628;6.670;2023-03-14T22:05:12;4.87;;;2.27;;
64595;SDS011;51003;51.628;6.670;2023-03-14T22:07:39;9.43;;;2.13;;
64595;SDS011;51003;51.628;6.670;2023-03-14T22:10:06;6.63;;;2.07;;
64595;SDS011;51003;51.628;6.670;2023-03-14T22:12:32;4.57;;;1.90;;
64595;SDS011;51003;51.628;6.670;2023-03-14T22:14:58;10.17;;;2.40;;
64595;SDS011;51003;51.628;6.670;2023-03-14T22:17:24;8.70;;;2.20;;
64595;SDS011;51003;51.628;6.670;2023-03-14T22:19:50;6.33;;;2.10;;
64595;SDS011;51003;51.628;6.670;2023-03-14T22:22:15;3.83;;;2.00;;
64595;SDS011;51003;51.628;6.670;2023-03-14T22:24:43;10.90;;;2.40;;
64595;SDS011;51003;51.628;6.670;2023-03-14T22:27:21;8.70;;;1.97;;
64595;SDS011;51003;51.628;6.670;2023-03-14T22:29:58;9.27;;;2.60;;
64595;SDS011;51003;51.628;6.670;2023-03-14T22:32:23;5.10;;;1.60;;
64595;SDS011;51003;51.628;6.670;2023-03-14T22:34:49;5.77;;;2.00;;
64595;SDS011;51003;51.628;6.670;2023-03-14T22:37:14;10.20;;;2.10;;
64595;SDS011;51003;51.628;6.670;2023-03-14T22:39:41;4.80;;;1.73;;
64595;SDS011;51003;51.628;6.670;2023-03-14T22:42:07;10.13;;;2.23;;
64595;SDS011;51003;51.628;6.670;2023-03-14T22:44:32;4.60;;;1.87;;
64595;SDS011;51003;51.628;6.670;2023-03-14T22:47:00;7.37;;;2.03;;
64595;SDS011;51003;51.628;6.670;2023-03-14T22:49:26;10.00;;;2.07;;
64595;SDS011;51003;51.628;6.670;2023-03-14T22:51:54;6.00;;;2.27;;
64595;SDS011;51003;51.628;6.670;2023-03-14T22:54:19;7.27;;;2.20;;
64595;SDS011;51003;51.628;6.670;2023-03-14T22:56:45;8.40;;;2.30;;
64595;SDS011;51003;51.628;6.670;2023-03-14T22:59:11;10.80;;;2.20;;
64595;SDS011;51003;51.628;6.670;2023-03-14T23:01:36;7.47;;;2.13;;
64595;SDS011;51003;51.628;6.670;2023-03-14T23:04:02;10.30;;;2.40;;
64595;SDS011;51003;51.628;6.670;2023-03-14T23:06:28;4.63;;;2.30;;
64595;SDS011;51003;51.628;6.670;2023-03-14T23:08:54;4.00;;;2.30;;
64595;SDS011;51003;51.628;6.670;2023-03-14T23:11:19;10.70;;;2.87;;
64595;SDS011;51003;51.628;6.670;2023-03-14T23:13:45;6.30;;;2.10;;
64595;SDS011;51003;51.628;6.670;2023-03-14T23:16:11;6.43;;;1.97;;
64595;SDS011;51003;51.628;6.670;2023-03-14T23:18:38;6.17;;;2.00;;
64595;SDS011;51003;51.628;6.670;2023-03-14T23:23:36;10.70;;;2.20;;
64595;SDS011;51003;51.628;6.670;2023-03-14T23:26:03;4.47;;;2.13;;
64595;SDS011;51003;51.628;6.670;2023-03-14T23:28:30;12.40;;;2.40;;
64595;SDS011;51003;51.628;6.670;2023-03-14T23:30:55;9.73;;;2.00;;
64595;SDS011;51003;51.628;6.670;2023-03-14T23:33:21;8.00;;;2.40;;
64595;SDS011;51003;51.628;6.670;2023-03-14T23:35:47;9.60;;;2.33;;
64595;SDS011;51003;51.628;6.670;2023-03-14T23:38:13;10.03;;;2.50;;
64595;SDS011;51003;51.628;6.670;2023-03-14T23:40:38;4.33;;;2.20;;
64595;SDS011;51003;51.628;6.670;2023-03-14T23:43:04;6.77;;;2.40;;
64595;SDS011;51003;51.628;6.670;2023-03-14T23:45:30;6.60;;;2.23;;
64595;SDS011;51003;51.628;6.670;2023-03-14T23:47:59;3.60;;;1.90;;
64595;SDS011;51003;51.628;6.670;2023-03-14T23:50:24;6.90;;;2.40;;
64595;SDS011;51003;51.628;6.670;2023-03-14T23:52:50;8.87;;;2.60;;
64595;SDS011;51003;51.628;6.670;2023-03-14T23:55:15;8.10;;;2.80;;
64595;SDS011;51003;51.628;6.670;2023-03-14T23:58:03;4.47;;;2.47;;
